Latest Coastal Weather Observations for Evans Head

IDN60701

Issued at 4:45 am EDT Thursday 27 November 2014 (issued every 10 minutes, with the page automatically refreshed every 10 minutes)

About coastal observations | Map of coastal stations | Coastal observations for NSW | Marine services | Other Formats
Station Details ID: 058212 Name: EVANS HEAD RAAF BOMBING RANGE AWS Lat: -29.18 Lon: 153.40 Height: 62.5 m
Data from the previous 72 hours. | See also: Recent months at Evans Head
Date/Time
EDT
Temp

°C
Wind Pressure Rain
since 9am
mm
Weather Cloud Vis
km
Sea
Height
m
Swell
Dir
 
Speed
knots
Gust
knots
hPa Trend Height
m
Period
s
Dir
27/04:30am 20.6 CALM 0 0 1014.9 - 1.4 - - - - - - -
27/04:00am 20.5 CALM 0 3 1014.9 - 1.4 - - - - - - -
27/03:30am 20.6 N 1 5 1014.7 - 1.4 - - - - - - -
27/03:00am 20.3 CALM 0 0 1014.9 - 1.4 - - - - - - -
27/02:30am 20.3 NNW 3 4 1015.0 - 1.4 - - - - - - -
27/02:00am 20.2 CALM 0 0 1015.4 - 1.4 - - - - - - -
27/01:30am 20.4 CALM 0 0 1015.6 - 1.4 - - - - - - -
27/01:00am 20.2 SSW 1 3 1015.9 - 1.4 - - - - - - -
27/12:30am 20.5 S 4 5 1016.3 - 1.4 - - - - - - -
27/12:00am 20.9 W 3 5 1016.5 - 1.4 - - - - - - -
 
Date/Time
EDT
Temp

°C
Wind Pressure Rain
since 9am
mm
Weather Cloud Vis
km
Sea
Height
m
Swell
Dir
 
Speed
knots
Gust
knots
hPa Trend Height
m
Period
s
Dir
26/11:30pm 20.8 WSW 5 7 1016.9 - 1.4 - - - - - - -
26/11:00pm 20.8 NNE 2 6 1016.8 - 1.4 - - - - - - -
26/10:30pm 20.8 WNW 3 5 1016.9 - 1.4 - - - - - - -
26/10:00pm 20.9 W 4 6 1017.1 - 1.4 - - - - - - -
26/09:30pm 20.8 CALM 0 4 1016.2 - 1.4 - - - - - - -
26/09:00pm 21.0 NW 3 5 1017.0 - 1.4 - - - - - - -
26/08:30pm 21.0 SW 5 6 1016.7 - 1.4 - - - - - - -
26/08:00pm 21.0 W 3 4 1016.9 - 1.4 - - - - - - -
26/07:30pm 20.8 W 4 7 1016.4 - 1.4 - - - - - - -
26/07:00pm 20.9 WSW 3 5 1016.4 - 1.4 - - - - - - -
26/06:30pm 20.8 WSW 5 7 1016.3 - 1.4 - - - - - - -
26/06:00pm 20.7 S 5 9 1015.8 - 1.4 - - - - - - -
26/05:30pm 21.0 S 5 8 1015.9 - 1.4 - - - - - - -
26/05:00pm 21.1 S 10 15 1015.9 - 1.4 - - - - - - -
26/04:30pm 21.0 SSW 11 15 1016.3 - 1.4 - - - - - - -
26/04:00pm 21.6 S 10 15 1016.0 - 1.4 - - - - - - -
26/03:30pm 21.8 S 10 14 1015.8 - 1.4 - - - - - - -
26/03:00pm 23.2 SSW 10 13 1015.9 - 1.4 - - - - - - -
26/02:30pm 23.2 SSW 10 15 1016.2 - 1.4 - - - - - - -
26/02:00pm 22.5 SSW 12 17 1016.4 - 1.4 - - - - - - -
26/01:30pm 21.8 S 11 15 1016.6 - 1.4 - - - - - - -
26/01:00pm 21.5 SSW 10 14 1017.0 - 1.4 - - - - - - -
26/12:30pm 21.8 S 10 15 1017.1 - 1.4 - - - - - - -
26/12:00pm 22.7 SSW 9 14 1017.2 - 0.8 Rain - - - - - -
26/11:30am 24.4 S 12 16 1017.2 - 0.0 - - - - - - -
26/11:00am 24.2 S 12 15 1017.4 - 0.0 - - - - - - -
26/10:30am 24.3 S 12 16 1017.4 - 0.0 - - - - - - -
26/10:00am 23.2 S 11 15 1017.4 - 0.0 - - - - - - -
26/09:30am 23.6 SSW 7 12 1017.5 - 0.0 - - - - - - -
26/09:00am 22.8 SSW 8 12 1017.5 - 6.2 - - - - - - -
26/08:30am 21.8 SW 7 11 1017.4 - 6.2 - - - - - - -
26/08:00am 21.2 SW 7 11 1017.5 - 6.2 - - - - - - -
26/07:30am 20.7 SW 7 10 1017.2 - 6.2 - - - - - - -
26/07:00am 20.5 SW 7 10 1017.2 - 6.2 - - - - - - -
26/06:30am 20.4 SW 6 9 1016.9 - 6.2 - - - - - - -
26/06:00am 20.2 SW 6 9 1016.4 - 6.2 - - - - - - -
26/05:30am 20.2 SW 7 10 1016.3 - 6.2 - - - - - - -
26/05:00am 20.4 SW 9 12 1016.2 - 6.2 - - - - - - -
26/04:30am 20.4 SW 6 8 1015.9 - 6.2 - - - - - - -
26/04:00am 20.4 SSW 6 8 1015.8 - 6.2 - - - - - - -
26/03:30am 20.5 SSW 8 10 1016.0 - 6.2 - - - - - - -
26/03:00am 20.6 SW 7 9 1016.3 - 6.2 - - - - - - -
26/02:30am 20.6 SW 7 10 1016.3 - 6.2 - - - - - - -
26/02:00am 20.7 SW 8 11 1016.6 - 6.2 - - - - - - -
26/01:30am 20.6 WSW 8 10 1016.9 - 6.2 - - - - - - -
26/01:00am 20.5 WSW 8 11 1017.6 - 6.2 - - - - - - -
26/12:30am 20.4 WSW 8 10 1017.7 - 6.2 - - - - - - -
26/12:00am 20.3 WSW 7 10 1017.9 - 6.2 Recent precip. - - - - - -
 
Date/Time
EDT
Temp

°C
Wind Pressure Rain
since 9am
mm
Weather Cloud Vis
km
Sea
Height
m
Swell
Dir
 
Speed
knots
Gust
knots
hPa Trend Height
m
Period
s
Dir
25/11:30pm 20.1 W 7 9 1018.1 - 6.0 - - - - - - -
25/11:00pm 20.0 WSW 9 11 1018.0 - 5.0 - - - - - - -
25/10:30pm 20.0 WSW 8 10 1018.0 - 4.2 - - - - - - -
25/10:00pm 20.0 WSW 7 9 1017.9 - 3.0 - - - - - - -
25/09:30pm 20.0 W 7 9 1018.0 - 2.2 - - - - - - -
25/09:00pm 20.0 W 7 11 1017.9 - 2.2 - - - - - - -
25/08:30pm 19.8 SSW 8 12 1017.1 - 2.2 - - - - - - -
25/08:00pm 19.7 S 11 15 1016.4 - 2.2 - - - - - - -
25/07:30pm 19.8 S 10 14 1016.1 - 0.6 - - - - - - -
25/07:00pm 19.9 S 13 16 1015.8 - 0.4 - - - - - - -
25/06:30pm 20.7 S 16 22 1015.6 - 0.0 - - - - - - -
25/06:00pm 22.0 S 13 19 1014.9 - 0.0 - - - - - - -
25/05:30pm 22.5 S 17 23 1014.4 - 0.0 - - - - - - -
25/05:00pm 22.8 S 15 24 1013.9 - 0.0 - - - - - - -
25/04:56pm 22.8 S 17 24 1013.8 - 0.0 - - - - - - -
25/04:30pm 27.2 E 6 9 1012.6 - 0.0 - - - - - - -
25/04:00pm 29.1 ENE 9 15 1011.4 - 0.0 - - - - - - -
25/03:30pm 29.7 NE 10 15 1010.9 - 0.0 - - - - - - -
25/03:00pm 30.7 ENE 9 13 1011.2 - 0.0 - - - - - - -
25/02:30pm 31.9 ENE 8 12 1011.4 - 0.0 - - - - - - -
25/02:00pm 30.8 E 9 13 1011.6 - 0.0 - - - - - - -
25/01:30pm 30.7 E 9 13 1011.9 - 0.0 - - - - - - -
25/01:00pm 30.7 ESE 9 11 1012.2 - 0.0 - - - - - - -
25/12:30pm 30.7 ESE 8 11 1012.4 - 0.0 - - - - - - -
25/12:00pm 30.5 ESE 7 9 1012.4 - 0.0 - - - - - - -
25/11:30am 33.6 ENE 4 7 1012.7 - 0.0 - - - - - - -
25/11:00am 31.6 WSW 7 11 1013.1 - 0.0 - - - - - - -
25/10:30am 31.7 WNW 5 10 1013.4 - 0.0 - - - - - - -
25/10:00am 31.1 NW 7 11 1013.4 - 0.0 - - - - - - -
25/09:30am 30.1 NNW 10 20 1013.4 - 0.0 - - - - - - -
25/09:00am 28.5 N 7 11 1013.4 - 0.0 - - - - - - -
25/08:30am 26.4 N 9 16 1013.3 - 0.0 - - - - - - -
25/08:00am 25.1 N 8 12 1013.4 - 0.0 - - - - - - -
25/07:30am 23.6 N 7 9 1013.3 - 0.0 - - - - - - -
25/07:00am 21.8 NNW 4 6 1013.0 - 0.0 - - - - - - -
25/06:30am 20.5 N 4 6 1012.7 - 0.0 - - - - - - -
25/06:00am 19.8 NNW 4 7 1012.4 - 0.0 - - - - - - -
25/05:30am 19.9 NNE 6 8 1011.7 - 0.0 - - - - - - -
25/05:00am 20.2 NNE 8 11 1011.3 - 0.0 - - - - - - -
25/04:30am 19.9 N 8 12 1011.3 - 0.0 - - - - - - -
25/04:00am 20.1 N 6 8 1011.5 - 0.0 - - - - - - -
25/03:30am 20.2 NNE 6 8 1011.4 - 0.0 - - - - - - -
25/03:00am 20.1 N 7 11 1011.4 - 0.0 - - - - - - -
25/02:30am 20.3 NNE 8 11 1011.2 - 0.0 - - - - - - -
25/02:00am 20.6 NNE 8 11 1011.3 - 0.0 - - - - - - -
25/01:30am 21.0 NNE 9 12 1011.6 - 0.0 - - - - - - -
25/01:00am 21.2 NNE 8 12 1011.7 - 0.0 - - - - - - -
25/12:30am 21.3 NNE 10 15 1011.7 - 0.0 - - - - - - -
25/12:00am 21.3 N 10 17 1011.8 - 0.0 - - - - - - -
 
Date/Time
EDT
Temp

°C
Wind Pressure Rain
since 9am
mm
Weather Cloud Vis
km
Sea
Height
m
Swell
Dir
 
Speed
knots
Gust
knots
hPa Trend Height
m
Period
s
Dir
24/11:30pm 21.2 NNE 11 17 1011.8 - 0.0 - - - - - - -
24/11:00pm 21.6 NNE 10 16 1012.1 - 0.0 - - - - - - -
24/10:30pm 21.6 NNE 11 19 1011.9 - 0.0 - - - - - - -
24/10:00pm 21.6 NNE 12 18 1011.6 - 0.0 - - - - - - -
24/09:30pm 22.0 NNE 16 24 1011.2 - 0.0 - - - - - - -
24/09:16pm 21.9 NNE 15 25 1011.0 - 0.0 - - - - - - -
24/09:00pm 22.1 NNE 14 21 1010.9 - 0.0 - - - - - - -
24/08:32pm 22.3 N 15 26 1010.4 - 0.0 - - - - - - -
24/08:30pm 22.3 N 14 26 1010.5 - 0.0 - - - - - - -
24/08:00pm 22.4 N 12 19 1010.4 - 0.0 - - - - - - -
24/07:30pm 22.9 NNE 13 21 1010.0 - 0.0 - - - - - - -
24/07:00pm 23.8 NNE 14 23 1009.6 - 0.0 - - - - - - -
24/06:30pm 23.9 NNE 13 20 1009.6 - 0.0 - - - - - - -
24/06:00pm 25.1 NNE 13 19 1009.6 - 0.0 - - - - - - -
24/05:30pm 26.2 NNE 15 22 1009.6 - 0.0 - - - - - - -
24/05:00pm 27.7 NNE 15 23 1009.8 - 0.0 - - - - - - -
24/04:30pm 27.6 NNE 13 21 1010.1 - 0.0 - - - - - - -
24/04:00pm 27.1 NNE 11 18 1010.5 - 0.0 - - - - - - -
24/03:30pm 27.6 NNE 10 16 1010.9 - 0.0 - - - - - - -
24/03:00pm 29.5 NNE 10 16 1011.5 - 0.0 - - - - - - -
24/02:30pm 31.5 NNE 9 13 1012.0 - 0.0 - - - - - - -
24/02:00pm 29.4 NNE 8 16 1012.5 - 0.0 - - - - - - -
24/01:30pm 30.2 NNE 11 17 1013.0 - 0.0 - - - - - - -
24/01:00pm 31.1 NNE 10 15 1013.2 - 0.0 - - - - - - -
24/12:30pm 29.3 NNE 9 13 1013.8 - 0.0 - - - - - - -
24/12:00pm 31.4 NE 10 15 1014.2 - 0.0 - - - - - - -
24/11:30am 32.7 NNE 8 14 1014.4 - 0.0 - - - - - - -
24/11:00am 31.7 NNE 9 13 1014.8 - 0.0 - - - - - - -
24/10:30am 31.6 NNE 8 12 1014.8 - 0.0 - - - - - - -
24/10:00am 30.5 N 6 10 1015.3 - 0.0 - - - - - - -
24/09:30am 29.6 N 8 14 1015.5 - 0.0 - - - - - - -
24/09:00am 28.3 N 7 11 1015.7 - 0.0 - - - - - - -
24/08:30am 26.9 N 8 13 1016.0 - 0.0 - - - - - - -
24/08:00am 25.9 N 7 11 1016.0 - 0.0 - - - - - - -
24/07:30am 23.9 N 7 10 1015.8 - 0.0 - - - - - - -
24/07:00am 22.1 NNE 8 11 1015.4 - 0.0 - - - - - - -
24/06:30am 20.9 NNE 9 13 1015.3 - 0.0 - - - - - - -
24/06:00am 20.5 NNE 7 9 1015.2 - 0.0 - - - - - - -
24/05:30am 20.5 NNE 7 10 1014.9 - 0.0 - - - - - - -
24/05:00am 20.7 NNE 6 9 1014.6 - 0.0 - - - - - - -

Other Formats:

Comma delimited format used in spreadsheet applications
http://www.bom.gov.au/fwo/IDN60701/IDN60701.94598.axf

JavaScript Object Notation format (JSON) in row-major order
http://www.bom.gov.au/fwo/IDN60701/IDN60701.94598.json